sensor_id;sensor_type;location;lat;lon;timestamp;P1;durP1;ratioP1;P2;durP2;ratioP2
6902;SDS011;20232;49.408;8.702;2023-03-24T10:38:22;3.97;;;3.63;;
6902;SDS011;20232;49.408;8.702;2023-03-24T10:40:48;4.97;;;4.20;;
6902;SDS011;20232;49.408;8.702;2023-03-24T10:43:15;4.00;;;3.70;;
6902;SDS011;20232;49.408;8.702;2023-03-24T10:45:43;4.53;;;4.20;;
6902;SDS011;20232;49.408;8.702;2023-03-24T10:48:12;5.17;;;4.43;;
6902;SDS011;20232;49.408;8.702;2023-03-24T10:50:42;4.70;;;4.27;;
6902;SDS011;20232;49.408;8.702;2023-03-24T10:53:18;4.93;;;4.53;;
6902;SDS011;20232;49.408;8.702;2023-03-24T10:55:44;4.93;;;4.40;;
6902;SDS011;20232;49.408;8.702;2023-03-24T10:58:27;5.43;;;4.63;;
6902;SDS011;20232;49.408;8.702;2023-03-24T11:00:54;5.33;;;4.50;;
6902;SDS011;20232;49.408;8.702;2023-03-24T11:03:39;5.40;;;4.90;;
6902;SDS011;20232;49.408;8.702;2023-03-24T11:07:41;4.63;;;4.23;;
6902;SDS011;20232;49.408;8.702;2023-03-24T11:12:36;5.10;;;4.40;;
6902;SDS011;20232;49.408;8.702;2023-03-24T11:15:13;4.80;;;4.40;;
6902;SDS011;20232;49.408;8.702;2023-03-24T11:17:43;5.43;;;4.93;;
6902;SDS011;20232;49.408;8.702;2023-03-24T11:20:19;4.97;;;4.47;;
6902;SDS011;20232;49.408;8.702;2023-03-24T11:22:56;5.20;;;4.80;;
6902;SDS011;20232;49.408;8.702;2023-03-24T11:25:37;4.87;;;4.47;;
6902;SDS011;20232;49.408;8.702;2023-03-24T11:28:05;5.40;;;4.60;;
6902;SDS011;20232;49.408;8.702;2023-03-24T11:30:33;8.07;;;5.90;;
6902;SDS011;20232;49.408;8.702;2023-03-24T11:33:11;5.33;;;4.93;;
6902;SDS011;20232;49.408;8.702;2023-03-24T11:35:43;5.40;;;4.90;;
6902;SDS011;20232;49.408;8.702;2023-03-24T11:38:13;4.40;;;4.00;;
6902;SDS011;20232;49.408;8.702;2023-03-24T11:40:51;2.77;;;2.57;;
6902;SDS011;20232;49.408;8.702;2023-03-24T11:43:19;2.80;;;2.60;;
6902;SDS011;20232;49.408;8.702;2023-03-24T11:45:45;4.10;;;3.10;;
6902;SDS011;20232;49.408;8.702;2023-03-24T11:48:36;3.27;;;2.90;;
6902;SDS011;20232;49.408;8.702;2023-03-24T11:51:09;2.60;;;2.40;;
6902;SDS011;20232;49.408;8.702;2023-03-24T11:53:50;2.80;;;2.13;;
6902;SDS011;20232;49.408;8.702;2023-03-24T11:56:26;4.33;;;2.57;;
6902;SDS011;20232;49.408;8.702;2023-03-24T11:59:14;3.33;;;2.27;;
6902;SDS011;20232;49.408;8.702;2023-03-24T12:07:32;2.50;;;2.30;;
6902;SDS011;20232;49.408;8.702;2023-03-24T12:10:03;4.50;;;2.70;;
6902;SDS011;20232;49.408;8.702;2023-03-24T12:13:02;3.03;;;2.50;;
6902;SDS011;20232;49.408;8.702;2023-03-24T12:15:38;2.40;;;2.20;;
6902;SDS011;20232;49.408;8.702;2023-03-24T12:20:49;2.27;;;2.07;;
6902;SDS011;20232;49.408;8.702;2023-03-24T12:26:26;2.93;;;1.80;;
6902;SDS011;20232;49.408;8.702;2023-03-24T12:29:16;3.13;;;1.80;;
6902;SDS011;20232;49.408;8.702;2023-03-24T12:34:46;2.13;;;1.90;;
6902;SDS011;20232;49.408;8.702;2023-03-24T12:40:49;3.30;;;1.80;;
6902;SDS011;20232;49.408;8.702;2023-03-24T12:43:44;1.90;;;1.80;;
6902;SDS011;20232;49.408;8.702;2023-03-24T12:48:50;3.57;;;1.70;;
6902;SDS011;20232;49.408;8.702;2023-03-24T12:54:16;1.80;;;1.70;;
6902;SDS011;20232;49.408;8.702;2023-03-24T12:56:57;2.10;;;1.80;;
6902;SDS011;20232;49.408;8.702;2023-03-24T12:59:29;2.50;;;2.27;;
6902;SDS011;20232;49.408;8.702;2023-03-24T13:04:47;2.73;;;1.90;;
6902;SDS011;20232;49.408;8.702;2023-03-24T13:07:17;2.40;;;1.60;;
6902;SDS011;20232;49.408;8.702;2023-03-24T13:15:29;2.33;;;1.70;;
